sensor_id;sensor_type;location;lat;lon;timestamp;pressure;altitude;pressure_sealevel;temperature;humidity
39455;BME280;25155;41.890;23.446;2023-02-18T00:01:29;92674.25;;;-0.33;48.19
39455;BME280;25155;41.890;23.446;2023-02-18T00:03:58;92673.84;;;-0.37;48.47
39455;BME280;25155;41.890;23.446;2023-02-18T00:06:28;92672.25;;;-0.38;48.40
39455;BME280;25155;41.890;23.446;2023-02-18T00:08:56;92676.38;;;-0.44;48.49
39455;BME280;25155;41.890;23.446;2023-02-18T00:11:29;92672.63;;;-0.48;48.19
39455;BME280;25155;41.890;23.446;2023-02-18T00:13:59;92675.19;;;-0.48;48.08
39455;BME280;25155;41.890;23.446;2023-02-18T00:16:28;92676.00;;;-0.47;47.91
39455;BME280;25155;41.890;23.446;2023-02-18T00:18:56;92678.56;;;-0.47;47.58
39455;BME280;25155;41.890;23.446;2023-02-18T00:21:24;92664.13;;;-0.48;47.71
39455;BME280;25155;41.890;23.446;2023-02-18T00:23:52;92663.50;;;-0.50;47.45
39455;BME280;25155;41.890;23.446;2023-02-18T00:26:19;92663.13;;;-0.47;47.65
39455;BME280;25155;41.890;23.446;2023-02-18T00:28:47;92665.69;;;-0.47;47.50
39455;BME280;25155;41.890;23.446;2023-02-18T00:31:19;92657.75;;;-0.52;47.59
39455;BME280;25155;41.890;23.446;2023-02-18T00:33:46;92657.56;;;-0.51;47.50
39455;BME280;25155;41.890;23.446;2023-02-18T00:36:16;92655.56;;;-0.55;47.80
39455;BME280;25155;41.890;23.446;2023-02-18T00:38:44;92650.22;;;-0.61;47.99
39455;BME280;25155;41.890;23.446;2023-02-18T00:41:11;92654.78;;;-0.63;48.02
39455;BME280;25155;41.890;23.446;2023-02-18T00:43:38;92641.69;;;-0.68;48.01
39455;BME280;25155;41.890;23.446;2023-02-18T00:46:06;92642.66;;;-0.69;47.74
39455;BME280;25155;41.890;23.446;2023-02-18T00:48:36;92641.50;;;-0.73;47.79
39455;BME280;25155;41.890;23.446;2023-02-18T00:51:04;92642.47;;;-0.74;47.97
39455;BME280;25155;41.890;23.446;2023-02-18T00:53:33;92639.50;;;-0.78;48.19
39455;BME280;25155;41.890;23.446;2023-02-18T00:56:01;92633.56;;;-0.78;48.14
39455;BME280;25155;41.890;23.446;2023-02-18T00:58:28;92633.34;;;-0.83;48.12
39455;BME280;25155;41.890;23.446;2023-02-18T01:00:56;92634.31;;;-0.91;48.65
39455;BME280;25155;41.890;23.446;2023-02-18T01:03:24;92629.13;;;-0.98;48.39
39455;BME280;25155;41.890;23.446;2023-02-18T01:05:52;92618.63;;;-1.03;48.72
39455;BME280;25155;41.890;23.446;2023-02-18T01:08:20;92608.91;;;-1.14;49.43
39455;BME280;25155;41.890;23.446;2023-02-18T01:10:51;92618.81;;;-1.11;49.29
39455;BME280;25155;41.890;23.446;2023-02-18T01:13:19;92604.13;;;-1.17;50.38
39455;BME280;25155;41.890;23.446;2023-02-18T01:15:47;92601.13;;;-1.27;50.08
39455;BME280;25155;41.890;23.446;2023-02-18T01:18:15;92603.91;;;-1.29;50.36
39455;BME280;25155;41.890;23.446;2023-02-18T01:20:43;92596.16;;;-1.36;50.98
39455;BME280;25155;41.890;23.446;2023-02-18T01:23:14;92592.19;;;-1.38;50.92
39455;BME280;25155;41.890;23.446;2023-02-18T01:25:41;92582.28;;;-1.35;50.58
39455;BME280;25155;41.890;23.446;2023-02-18T01:28:11;92585.88;;;-1.36;50.05
39455;BME280;25155;41.890;23.446;2023-02-18T01:30:40;92577.38;;;-1.36;49.75
39455;BME280;25155;41.890;23.446;2023-02-18T01:33:08;92577.16;;;-1.35;49.96
39455;BME280;25155;41.890;23.446;2023-02-18T01:35:37;92578.94;;;-1.35;49.60
39455;BME280;25155;41.890;23.446;2023-02-18T01:38:04;92581.50;;;-1.35;49.60
39455;BME280;25155;41.890;23.446;2023-02-18T01:40:33;92572.41;;;-1.38;49.52
39455;BME280;25155;41.890;23.446;2023-02-18T01:43:01;92563.69;;;-1.37;49.67
39455;BME280;25155;41.890;23.446;2023-02-18T01:45:54;92565.47;;;-1.44;49.76
39455;BME280;25155;41.890;23.446;2023-02-18T01:48:26;92563.69;;;-1.43;49.91
39455;BME280;25155;41.890;23.446;2023-02-18T01:51:01;92556.34;;;-1.46;49.86
39455;BME280;25155;41.890;23.446;2023-02-18T01:53:34;92556.31;;;-1.53;50.15
39455;BME280;25155;41.890;23.446;2023-02-18T01:56:07;92554.53;;;-1.59;50.78
39455;BME280;25155;41.890;23.446;2023-02-18T01:58:37;92552.72;;;-1.65;51.03
39455;BME280;25155;41.890;23.446;2023-02-18T02:01:05;92553.84;;;-1.75;51.56
39455;BME280;25155;41.890;23.446;2023-02-18T02:03:32;92552.69;;;-1.72;51.15
39455;BME280;25155;41.890;23.446;2023-02-18T02:06:00;92545.97;;;-1.73;51.47
39455;BME280;25155;41.890;23.446;2023-02-18T02:08:27;92558.03;;;-1.74;51.02
39455;BME280;25155;41.890;23.446;2023-02-18T02:11:10;92560.19;;;-1.77;50.37
39455;BME280;25155;41.890;23.446;2023-02-18T02:13:55;92557.22;;;-1.81;50.30
39455;BME280;25155;41.890;23.446;2023-02-18T02:16:29;92559.78;;;-1.81;50.42
39455;BME280;25155;41.890;23.446;2023-02-18T02:19:15;92557.34;;;-1.89;51.89
39455;BME280;25155;41.890;23.446;2023-02-18T02:22:06;92559.31;;;-1.91;51.30
39455;BME280;25155;41.890;23.446;2023-02-18T02:25:01;92556.13;;;-1.93;51.36
39455;BME280;25155;41.890;23.446;2023-02-18T02:30:41;92557.38;;;-2.17;51.20
39455;BME280;25155;41.890;23.446;2023-02-18T02:33:40;92559.22;;;-2.04;50.90
39455;BME280;25155;41.890;23.446;2023-02-18T02:36:19;92564.59;;;-1.99;51.27
39455;BME280;25155;41.890;23.446;2023-02-18T02:38:54;92567.56;;;-2.02;51.89
39455;BME280;25155;41.890;23.446;2023-02-18T02:41:37;92563.91;;;-2.15;51.17
39455;BME280;25155;41.890;23.446;2023-02-18T02:44:14;92564.28;;;-2.18;51.87
39455;BME280;25155;41.890;23.446;2023-02-18T02:46:46;92566.25;;;-2.20;52.28
39455;BME280;25155;41.890;23.446;2023-02-18T02:49:27;92573.72;;;-2.25;52.00
39455;BME280;25155;41.890;23.446;2023-02-18T02:52:03;92585.06;;;-2.41;54.51
39455;BME280;25155;41.890;23.446;2023-02-18T02:54:32;92585.66;;;-2.39;53.63
39455;BME280;25155;41.890;23.446;2023-02-18T02:57:08;92580.72;;;-2.62;56.06
39455;BME280;25155;41.890;23.446;2023-02-18T02:59:40;92588.88;;;-2.80;55.93
39455;BME280;25155;41.890;23.446;2023-02-18T03:02:22;92592.25;;;-2.79;55.48
39455;BME280;25155;41.890;23.446;2023-02-18T03:05:10;92583.75;;;-2.80;55.75
39455;BME280;25155;41.890;23.446;2023-02-18T03:08:03;92581.97;;;-2.79;55.60
39455;BME280;25155;41.890;23.446;2023-02-18T03:10:46;92581.25;;;-2.73;54.89
39455;BME280;25155;41.890;23.446;2023-02-18T03:13:28;92574.34;;;-2.73;54.26
39455;BME280;25155;41.890;23.446;2023-02-18T03:16:06;92570.22;;;-2.67;54.97
39455;BME280;25155;41.890;23.446;2023-02-18T03:18:39;92574.16;;;-2.71;55.16
39455;BME280;25155;41.890;23.446;2023-02-18T03:21:10;92572.56;;;-2.72;54.55
39455;BME280;25155;41.890;23.446;2023-02-18T03:23:44;92569.25;;;-2.66;55.21
39455;BME280;25155;41.890;23.446;2023-02-18T03:26:15;92572.38;;;-2.71;55.41
39455;BME280;25155;41.890;23.446;2023-02-18T03:28:45;92567.06;;;-2.69;55.03
39455;BME280;25155;41.890;23.446;2023-02-18T03:31:18;92573.84;;;-2.61;55.29
39455;BME280;25155;41.890;23.446;2023-02-18T03:33:53;92573.97;;;-2.70;54.90
39455;BME280;25155;41.890;23.446;2023-02-18T03:36:22;92571.34;;;-2.76;55.08
39455;BME280;25155;41.890;23.446;2023-02-18T03:38:53;92572.50;;;-2.79;55.35
39455;BME280;25155;41.890;23.446;2023-02-18T03:41:22;92565.34;;;-2.84;55.18
39455;BME280;25155;41.890;23.446;2023-02-18T03:43:50;92565.47;;;-2.92;55.21
39455;BME280;25155;41.890;23.446;2023-02-18T03:46:18;92562.84;;;-2.98;55.59
39455;BME280;25155;41.890;23.446;2023-02-18T03:48:45;92571.97;;;-2.96;55.06
39455;BME280;25155;41.890;23.446;2023-02-18T03:51:12;92554.19;;;-2.97;55.25
39455;BME280;25155;41.890;23.446;2023-02-18T03:53:39;92572.69;;;-3.02;55.27
39455;BME280;25155;41.890;23.446;2023-02-18T03:56:08;92579.53;;;-3.09;56.36
39455;BME280;25155;41.890;23.446;2023-02-18T03:58:37;92573.44;;;-3.08;56.05
39455;BME280;25155;41.890;23.446;2023-02-18T04:01:04;92562.78;;;-3.05;56.77
39455;BME280;25155;41.890;23.446;2023-02-18T04:03:31;92563.34;;;-3.10;56.96
39455;BME280;25155;41.890;23.446;2023-02-18T04:05:59;92565.47;;;-3.13;57.08
39455;BME280;25155;41.890;23.446;2023-02-18T04:08:26;92575.00;;;-3.07;56.53
39455;BME280;25155;41.890;23.446;2023-02-18T04:10:53;92557.34;;;-3.17;57.00
39455;BME280;25155;41.890;23.446;2023-02-18T04:13:21;92575.38;;;-3.10;56.79
39455;BME280;25155;41.890;23.446;2023-02-18T04:15:49;92565.41;;;-3.20;57.76
39455;BME280;25155;41.890;23.446;2023-02-18T04:18:17;92567.97;;;-3.20;57.53
39455;BME280;25155;41.890;23.446;2023-02-18T04:20:45;92574.31;;;-3.16;57.05
39455;BME280;25155;41.890;23.446;2023-02-18T04:23:12;92576.72;;;-3.14;56.83
39455;BME280;25155;41.890;23.446;2023-02-18T04:25:40;92557.53;;;-3.19;57.15
39455;BME280;25155;41.890;23.446;2023-02-18T04:28:08;92574.31;;;-3.16;56.91
39455;BME280;25155;41.890;23.446;2023-02-18T04:30:39;92573.28;;;-3.22;57.16
39455;BME280;25155;41.890;23.446;2023-02-18T04:33:06;92579.63;;;-3.17;56.91
39455;BME280;25155;41.890;23.446;2023-02-18T04:35:33;92577.19;;;-3.26;57.85
39455;BME280;25155;41.890;23.446;2023-02-18T04:38:01;92583.19;;;-3.33;57.86
39455;BME280;25155;41.890;23.446;2023-02-18T04:40:28;92569.97;;;-3.37;57.34
39455;BME280;25155;41.890;23.446;2023-02-18T04:42:56;92573.59;;;-3.31;56.96
39455;BME280;25155;41.890;23.446;2023-02-18T04:45:23;92594.16;;;-3.25;56.74
39455;BME280;25155;41.890;23.446;2023-02-18T04:47:52;92608.56;;;-3.24;56.65
39455;BME280;25155;41.890;23.446;2023-02-18T04:50:21;92597.75;;;-3.19;56.67
39455;BME280;25155;41.890;23.446;2023-02-18T04:52:48;92600.16;;;-3.17;56.47
39455;BME280;25155;41.890;23.446;2023-02-18T04:55:15;92596.16;;;-3.20;56.51
39455;BME280;25155;41.890;23.446;2023-02-18T04:57:43;92597.69;;;-3.26;56.60
39455;BME280;25155;41.890;23.446;2023-02-18T05:00:14;92598.84;;;-3.28;56.80
39455;BME280;25155;41.890;23.446;2023-02-18T05:02:42;92601.22;;;-3.27;56.38
39455;BME280;25155;41.890;23.446;2023-02-18T05:05:12;92600.06;;;-3.24;56.28
39455;BME280;25155;41.890;23.446;2023-02-18T05:07:40;92599.28;;;-3.25;56.55
39455;BME280;25155;41.890;23.446;2023-02-18T05:10:09;92596.44;;;-3.30;56.76
39455;BME280;25155;41.890;23.446;2023-02-18T05:12:37;92590.56;;;-3.45;57.91
39455;BME280;25155;41.890;23.446;2023-02-18T05:15:05;92594.06;;;-3.68;59.35
39455;BME280;25155;41.890;23.446;2023-02-18T05:17:33;92596.16;;;-3.71;58.77
39455;BME280;25155;41.890;23.446;2023-02-18T05:20:00;92611.63;;;-3.65;58.21
39455;BME280;25155;41.890;23.446;2023-02-18T05:22:28;92603.41;;;-3.60;57.86
39455;BME280;25155;41.890;23.446;2023-02-18T05:24:56;92595.63;;;-3.52;58.03
39455;BME280;25155;41.890;23.446;2023-02-18T05:27:23;92593.22;;;-3.53;57.87
39455;BME280;25155;41.890;23.446;2023-02-18T05:29:50;92589.09;;;-3.54;57.71
39455;BME280;25155;41.890;23.446;2023-02-18T05:32:17;92596.03;;;-3.48;57.84
39455;BME280;25155;41.890;23.446;2023-02-18T05:34:44;92608.06;;;-3.49;57.60
39455;BME280;25155;41.890;23.446;2023-02-18T05:37:12;92597.81;;;-3.49;57.88
39455;BME280;25155;41.890;23.446;2023-02-18T05:39:41;92590.06;;;-3.56;58.17
39455;BME280;25155;41.890;23.446;2023-02-18T05:42:08;92605.44;;;-3.56;59.24
39455;BME280;25155;41.890;23.446;2023-02-18T05:44:36;92610.91;;;-3.59;58.90
39455;BME280;25155;41.890;23.446;2023-02-18T05:47:06;92604.28;;;-3.53;58.91
39455;BME280;25155;41.890;23.446;2023-02-18T05:49:35;92591.75;;;-3.63;58.69
39455;BME280;25155;41.890;23.446;2023-02-18T05:52:03;92607.19;;;-3.41;58.56
39455;BME280;25155;41.890;23.446;2023-02-18T05:54:30;92603.88;;;-3.35;58.94
39455;BME280;25155;41.890;23.446;2023-02-18T05:56:59;92607.78;;;-3.39;58.96
39455;BME280;25155;41.890;23.446;2023-02-18T05:59:27;92610.00;;;-3.36;58.69
39455;BME280;25155;41.890;23.446;2023-02-18T06:01:54;92607.19;;;-3.41;60.21
39455;BME280;25155;41.890;23.446;2023-02-18T06:04:22;92609.13;;;-3.58;61.44
39455;BME280;25155;41.890;23.446;2023-02-18T06:06:49;92615.16;;;-3.66;61.70
39455;BME280;25155;41.890;23.446;2023-02-18T06:09:17;92610.41;;;-3.84;61.56
39455;BME280;25155;41.890;23.446;2023-02-18T06:11:44;92614.16;;;-3.95;62.32
39455;BME280;25155;41.890;23.446;2023-02-18T06:14:12;92609.06;;;-3.95;62.16
39455;BME280;25155;41.890;23.446;2023-02-18T06:16:39;92611.19;;;-3.83;61.57
39455;BME280;25155;41.890;23.446;2023-02-18T06:19:06;92601.28;;;-3.71;61.51
39455;BME280;25155;41.890;23.446;2023-02-18T06:21:34;92610.56;;;-3.56;60.83
39455;BME280;25155;41.890;23.446;2023-02-18T06:24:01;92601.97;;;-3.48;60.60
39455;BME280;25155;41.890;23.446;2023-02-18T06:26:29;92604.78;;;-3.28;60.03
39455;BME280;25155;41.890;23.446;2023-02-18T06:28:56;92595.38;;;-3.21;60.08
39455;BME280;25155;41.890;23.446;2023-02-18T06:31:25;92590.44;;;-3.22;59.90
39455;BME280;25155;41.890;23.446;2023-02-18T06:33:52;92605.41;;;-3.04;60.15
39455;BME280;25155;41.890;23.446;2023-02-18T06:36:20;92605.91;;;-2.94;59.88
39455;BME280;25155;41.890;23.446;2023-02-18T06:38:47;92609.53;;;-2.88;60.35
39455;BME280;25155;41.890;23.446;2023-02-18T06:41:14;92616.28;;;-2.80;60.30
39455;BME280;25155;41.890;23.446;2023-02-18T06:43:42;92603.09;;;-2.77;60.82
39455;BME280;25155;41.890;23.446;2023-02-18T06:46:09;92606.91;;;-2.73;61.16
39455;BME280;25155;41.890;23.446;2023-02-18T06:48:38;92618.44;;;-2.63;60.88
39455;BME280;25155;41.890;23.446;2023-02-18T06:51:05;92610.44;;;-2.53;61.05
39455;BME280;25155;41.890;23.446;2023-02-18T06:53:33;92604.34;;;-2.52;60.91
39455;BME280;25155;41.890;23.446;2023-02-18T06:56:00;92609.84;;;-2.55;61.57
39455;BME280;25155;41.890;23.446;2023-02-18T06:58:27;92606.66;;;-2.57;60.95
39455;BME280;25155;41.890;23.446;2023-02-18T07:00:55;92616.03;;;-2.42;60.71
39455;BME280;25155;41.890;23.446;2023-02-18T07:03:23;92623.00;;;-2.36;60.45
39455;BME280;25155;41.890;23.446;2023-02-18T07:05:51;92618.13;;;-2.31;60.29
39455;BME280;25155;41.890;23.446;2023-02-18T07:08:18;92615.66;;;-2.18;60.40
39455;BME280;25155;41.890;23.446;2023-02-18T07:10:46;92607.38;;;-2.13;59.80
39455;BME280;25155;41.890;23.446;2023-02-18T07:13:14;92599.13;;;-2.09;59.67
39455;BME280;25155;41.890;23.446;2023-02-18T07:15:41;92597.94;;;-2.06;59.98
39455;BME280;25155;41.890;23.446;2023-02-18T07:18:08;92572.59;;;-2.16;59.55
39455;BME280;25155;41.890;23.446;2023-02-18T07:20:36;92583.94;;;-2.03;59.75
39455;BME280;25155;41.890;23.446;2023-02-18T07:23:04;92597.25;;;-1.93;58.98
39455;BME280;25155;41.890;23.446;2023-02-18T07:25:31;92596.13;;;-1.84;58.81
39455;BME280;25155;41.890;23.446;2023-02-18T07:27:59;92590.66;;;-1.74;59.10
39455;BME280;25155;41.890;23.446;2023-02-18T07:30:26;92587.75;;;-1.58;58.72
39455;BME280;25155;41.890;23.446;2023-02-18T07:32:54;92585.44;;;-1.46;59.22
39455;BME280;25155;41.890;23.446;2023-02-18T07:35:21;92582.28;;;-1.35;59.13
39455;BME280;25155;41.890;23.446;2023-02-18T07:37:49;92580.19;;;-1.24;58.98
39455;BME280;25155;41.890;23.446;2023-02-18T07:40:20;92568.72;;;-1.15;59.17
39455;BME280;25155;41.890;23.446;2023-02-18T07:42:47;92568.38;;;-0.99;58.87
39455;BME280;25155;41.890;23.446;2023-02-18T07:45:15;92562.47;;;-0.79;58.81
39455;BME280;25155;41.890;23.446;2023-02-18T07:47:42;92554.75;;;-0.59;59.04
39455;BME280;25155;41.890;23.446;2023-02-18T07:50:10;92554.97;;;-0.41;58.85
39455;BME280;25155;41.890;23.446;2023-02-18T07:52:37;92546.44;;;-0.41;58.56
39455;BME280;25155;41.890;23.446;2023-02-18T07:55:05;92577.34;;;-0.14;58.12
39455;BME280;25155;41.890;23.446;2023-02-18T07:57:34;92549.38;;;-0.11;58.40
39455;BME280;25155;41.890;23.446;2023-02-18T08:00:22;92563.28;;;-0.05;57.83
39455;BME280;25155;41.890;23.446;2023-02-18T08:02:49;92584.66;;;0.02;57.44
39455;BME280;25155;41.890;23.446;2023-02-18T08:05:17;92582.66;;;0.11;57.71
39455;BME280;25155;41.890;23.446;2023-02-18T08:07:44;92572.53;;;0.16;57.29
39455;BME280;25155;41.890;23.446;2023-02-18T08:10:11;92573.53;;;0.22;56.94
39455;BME280;25155;41.890;23.446;2023-02-18T08:12:40;92571.72;;;0.29;56.66
39455;BME280;25155;41.890;23.446;2023-02-18T08:15:08;92549.31;;;0.29;55.93
39455;BME280;25155;41.890;23.446;2023-02-18T08:17:35;92560.59;;;0.42;55.92
39455;BME280;25155;41.890;23.446;2023-02-18T08:20:02;92566.28;;;0.50;55.90
39455;BME280;25155;41.890;23.446;2023-02-18T08:22:30;92567.66;;;0.60;54.92
39455;BME280;25155;41.890;23.446;2023-02-18T08:24:57;92576.53;;;0.70;55.11
39455;BME280;25155;41.890;23.446;2023-02-18T08:27:24;92568.19;;;0.75;54.19
39455;BME280;25155;41.890;23.446;2023-02-18T08:29:53;92563.38;;;0.85;54.70
39455;BME280;25155;41.890;23.446;2023-02-18T08:32:20;92551.25;;;0.93;54.47
39455;BME280;25155;41.890;23.446;2023-02-18T08:34:47;92558.47;;;1.16;54.42
39455;BME280;25155;41.890;23.446;2023-02-18T08:37:15;92551.78;;;1.33;54.19
39455;BME280;25155;41.890;23.446;2023-02-18T08:39:42;92546.69;;;1.52;54.59
39455;BME280;25155;41.890;23.446;2023-02-18T08:42:09;92553.34;;;1.66;55.09
39455;BME280;25155;41.890;23.446;2023-02-18T08:44:36;92551.06;;;1.76;54.30
39455;BME280;25155;41.890;23.446;2023-02-18T08:47:04;92542.84;;;1.86;54.58
39455;BME280;25155;41.890;23.446;2023-02-18T08:49:32;92534.19;;;1.99;53.81
39455;BME280;25155;41.890;23.446;2023-02-18T08:52:02;92533.63;;;2.15;53.55
39455;BME280;25155;41.890;23.446;2023-02-18T08:54:30;92529.69;;;2.31;53.75
39455;BME280;25155;41.890;23.446;2023-02-18T08:56:57;92524.72;;;2.48;53.44
39455;BME280;25155;41.890;23.446;2023-02-18T08:59:25;92531.34;;;2.63;53.57
39455;BME280;25155;41.890;23.446;2023-02-18T09:01:52;92527.78;;;2.76;53.22
39455;BME280;25155;41.890;23.446;2023-02-18T09:04:21;92523.47;;;2.88;53.00
39455;BME280;25155;41.890;23.446;2023-02-18T09:06:48;92517.25;;;3.07;51.89
39455;BME280;25155;41.890;23.446;2023-02-18T09:09:21;92508.19;;;3.28;51.06
39455;BME280;25155;41.890;23.446;2023-02-18T09:11:49;92514.88;;;3.60;50.67
39455;BME280;25155;41.890;23.446;2023-02-18T09:14:16;92513.34;;;3.82;50.18
39455;BME280;25155;41.890;23.446;2023-02-18T09:16:43;92518.63;;;3.99;48.81
39455;BME280;25155;41.890;23.446;2023-02-18T09:19:10;92525.19;;;4.02;48.88
39455;BME280;25155;41.890;23.446;2023-02-18T09:21:39;92515.38;;;4.04;49.31
39455;BME280;25155;41.890;23.446;2023-02-18T09:24:06;92518.94;;;4.15;49.66
39455;BME280;25155;41.890;23.446;2023-02-18T09:26:35;92505.88;;;4.22;49.83
39455;BME280;25155;41.890;23.446;2023-02-18T09:29:02;92505.06;;;4.33;49.71
39455;BME280;25155;41.890;23.446;2023-02-18T09:31:29;92498.84;;;4.46;48.16
39455;BME280;25155;41.890;23.446;2023-02-18T09:33:58;92501.16;;;4.59;48.10
39455;BME280;25155;41.890;23.446;2023-02-18T09:36:27;92490.63;;;4.78;46.54
39455;BME280;25155;41.890;23.446;2023-02-18T09:38:56;92463.31;;;4.75;46.69
39455;BME280;25155;41.890;23.446;2023-02-18T09:41:29;92487.34;;;5.11;46.99
39455;BME280;25155;41.890;23.446;2023-02-18T09:44:01;92472.69;;;5.39;46.33
39455;BME280;25155;41.890;23.446;2023-02-18T09:46:32;92485.75;;;5.73;46.30
39455;BME280;25155;41.890;23.446;2023-02-18T09:49:02;92458.78;;;5.96;43.21
39455;BME280;25155;41.890;23.446;2023-02-18T09:51:29;92464.94;;;6.29;42.33
39455;BME280;25155;41.890;23.446;2023-02-18T09:54:00;92474.31;;;6.52;38.71
39455;BME280;25155;41.890;23.446;2023-02-18T09:56:31;92466.19;;;6.70;39.71
39455;BME280;25155;41.890;23.446;2023-02-18T09:59:04;92459.69;;;6.95;35.68
39455;BME280;25155;41.890;23.446;2023-02-18T10:01:36;92463.06;;;7.23;34.49
39455;BME280;25155;41.890;23.446;2023-02-18T10:04:09;92457.56;;;7.46;33.81
39455;BME280;25155;41.890;23.446;2023-02-18T10:06:38;92453.09;;;7.74;35.00
39455;BME280;25155;41.890;23.446;2023-02-18T10:09:15;92455.25;;;7.87;32.64
39455;BME280;25155;41.890;23.446;2023-02-18T10:11:48;92444.13;;;8.02;31.67
39455;BME280;25155;41.890;23.446;2023-02-18T10:14:17;92440.47;;;8.03;32.60
39455;BME280;25155;41.890;23.446;2023-02-18T10:16:46;92439.75;;;8.13;31.62
39455;BME280;25155;41.890;23.446;2023-02-18T10:19:21;92445.22;;;8.12;31.98
39455;BME280;25155;41.890;23.446;2023-02-18T10:21:51;92443.13;;;8.14;31.42
39455;BME280;25155;41.890;23.446;2023-02-18T10:24:26;92440.56;;;8.19;30.17
39455;BME280;25155;41.890;23.446;2023-02-18T10:26:55;92450.53;;;8.27;30.48
39455;BME280;25155;41.890;23.446;2023-02-18T10:29:24;92449.22;;;8.30;29.22
39455;BME280;25155;41.890;23.446;2023-02-18T10:31:55;92439.06;;;8.33;29.86
39455;BME280;25155;41.890;23.446;2023-02-18T10:34:39;92431.75;;;8.35;30.51
39455;BME280;25155;41.890;23.446;2023-02-18T10:37:28;92420.28;;;8.41;30.91
39455;BME280;25155;41.890;23.446;2023-02-18T10:40:05;92425.31;;;8.58;30.82
39455;BME280;25155;41.890;23.446;2023-02-18T10:42:42;92421.19;;;8.73;29.92
39455;BME280;25155;41.890;23.446;2023-02-18T10:45:20;92428.53;;;8.86;30.06
39455;BME280;25155;41.890;23.446;2023-02-18T10:48:00;92413.97;;;9.06;30.30
39455;BME280;25155;41.890;23.446;2023-02-18T10:50:34;92402.22;;;9.18;30.56
39455;BME280;25155;41.890;23.446;2023-02-18T10:53:09;92407.19;;;9.25;29.61
39455;BME280;25155;41.890;23.446;2023-02-18T10:55:40;92397.25;;;9.32;30.80
39455;BME280;25155;41.890;23.446;2023-02-18T10:58:24;92397.75;;;9.34;29.88
39455;BME280;25155;41.890;23.446;2023-02-18T11:00:52;92387.06;;;9.46;30.18
39455;BME280;25155;41.890;23.446;2023-02-18T11:03:22;92390.97;;;9.39;29.92
39455;BME280;25155;41.890;23.446;2023-02-18T11:05:52;92355.91;;;9.34;29.66
39455;BME280;25155;41.890;23.446;2023-02-18T11:08:23;92383.13;;;9.49;30.74
39455;BME280;25155;41.890;23.446;2023-02-18T11:10:56;92371.63;;;9.50;29.65
39455;BME280;25155;41.890;23.446;2023-02-18T11:13:26;92365.31;;;9.56;29.81
39455;BME280;25155;41.890;23.446;2023-02-18T11:15:58;92365.56;;;9.75;30.34
39455;BME280;25155;41.890;23.446;2023-02-18T11:18:34;92364.19;;;9.98;30.50
39455;BME280;25155;41.890;23.446;2023-02-18T11:21:04;92367.00;;;10.22;30.49
39455;BME280;25155;41.890;23.446;2023-02-18T11:23:45;92366.41;;;10.46;29.59
39455;BME280;25155;41.890;23.446;2023-02-18T11:26:15;92361.47;;;10.39;30.20
39455;BME280;25155;41.890;23.446;2023-02-18T11:28:45;92351.84;;;10.74;29.65
39455;BME280;25155;41.890;23.446;2023-02-18T11:31:20;92356.13;;;10.99;30.20
39455;BME280;25155;41.890;23.446;2023-02-18T11:33:51;92348.13;;;11.20;29.42
39455;BME280;25155;41.890;23.446;2023-02-18T11:36:24;92340.72;;;11.27;28.83
39455;BME280;25155;41.890;23.446;2023-02-18T11:38:55;92325.72;;;11.33;28.50
39455;BME280;25155;41.890;23.446;2023-02-18T11:41:32;92336.69;;;11.40;28.47
39455;BME280;25155;41.890;23.446;2023-02-18T11:44:01;92322.94;;;11.53;28.33
39455;BME280;25155;41.890;23.446;2023-02-18T11:46:30;92316.50;;;11.70;29.31
39455;BME280;25155;41.890;23.446;2023-02-18T11:49:10;92320.34;;;11.77;28.68
39455;BME280;25155;41.890;23.446;2023-02-18T11:51:47;92310.03;;;11.86;28.73
39455;BME280;25155;41.890;23.446;2023-02-18T11:54:25;92309.16;;;11.91;28.61
39455;BME280;25155;41.890;23.446;2023-02-18T11:56:58;92317.63;;;11.88;29.19
39455;BME280;25155;41.890;23.446;2023-02-18T11:59:29;92325.03;;;11.81;29.17
39455;BME280;25155;41.890;23.446;2023-02-18T12:01:59;92313.56;;;11.42;29.52
39455;BME280;25155;41.890;23.446;2023-02-18T12:04:32;92315.06;;;11.53;30.05
39455;BME280;25155;41.890;23.446;2023-02-18T12:07:11;92307.22;;;11.48;29.56
39455;BME280;25155;41.890;23.446;2023-02-18T12:09:46;92321.94;;;11.44;29.89
39455;BME280;25155;41.890;23.446;2023-02-18T12:12:19;92319.38;;;11.39;28.98
39455;BME280;25155;41.890;23.446;2023-02-18T12:14:53;92319.66;;;11.37;29.21
39455;BME280;25155;41.890;23.446;2023-02-18T12:17:39;92313.44;;;11.28;28.77
39455;BME280;25155;41.890;23.446;2023-02-18T12:23:22;92310.81;;;11.57;29.98
39455;BME280;25155;41.890;23.446;2023-02-18T12:25:58;92307.75;;;11.80;30.77
39455;BME280;25155;41.890;23.446;2023-02-18T12:28:39;92300.25;;;11.92;30.29
39455;BME280;25155;41.890;23.446;2023-02-18T12:31:23;92284.63;;;12.01;31.25
39455;BME280;25155;41.890;23.446;2023-02-18T12:34:08;92284.47;;;12.16;29.37
39455;BME280;25155;41.890;23.446;2023-02-18T12:36:49;92288.50;;;12.27;29.58
39455;BME280;25155;41.890;23.446;2023-02-18T12:39:28;92287.88;;;12.36;29.84
39455;BME280;25155;41.890;23.446;2023-02-18T12:42:23;92285.53;;;12.34;29.09
39455;BME280;25155;41.890;23.446;2023-02-18T12:45:03;92287.31;;;12.39;29.81
39455;BME280;25155;41.890;23.446;2023-02-18T12:47:52;92274.97;;;12.39;28.62
39455;BME280;25155;41.890;23.446;2023-02-18T12:50:47;92279.81;;;12.51;30.18
39455;BME280;25155;41.890;23.446;2023-02-18T12:53:33;92289.53;;;12.69;30.29
39455;BME280;25155;41.890;23.446;2023-02-18T12:56:20;92271.34;;;12.73;29.77
39455;BME280;25155;41.890;23.446;2023-02-18T12:58:58;92267.31;;;12.81;30.04
39455;BME280;25155;41.890;23.446;2023-02-18T13:01:44;92268.31;;;12.85;29.91
39455;BME280;25155;41.890;23.446;2023-02-18T13:04:35;92270.66;;;12.86;29.13
39455;BME280;25155;41.890;23.446;2023-02-18T13:10:35;92279.50;;;12.72;29.34
39455;BME280;25155;41.890;23.446;2023-02-18T13:13:10;92285.44;;;12.82;29.61
39455;BME280;25155;41.890;23.446;2023-02-18T13:15:41;92285.78;;;12.95;30.00
39455;BME280;25155;41.890;23.446;2023-02-18T13:18:15;92288.03;;;13.01;30.12
39455;BME280;25155;41.890;23.446;2023-02-18T13:20:48;92293.78;;;13.03;29.14
39455;BME280;25155;41.890;23.446;2023-02-18T13:23:19;92297.59;;;12.97;29.34